Time;durP1;ratioP1;P1;durP2;ratioP2;P2;SDS_P1;SDS_P2;PMS_P1;PMS_P2;Temp;Humidity;BMP_temperature;BMP_pressure;BME280_temperature;BME280_humidity;BME280_pressure;Samples;Min_cycle;Max_cycle;Signal;HPM_P1;HPM_P2
2021/12/18 00:00:48;;;;;;;9.93;8.87;;;;;;;1.02;67.97;95220.88;5078523;28;20220;-63
2021/12/18 00:03:13;;;;;;;12.20;9.87;;;;;;;1.05;67.89;95227.66;5079408;28;20288;-63
2021/12/18 00:05:40;;;;;;;10.63;9.20;;;;;;;1.00;68.07;95224.50;5063214;28;20221;-63
2021/12/18 00:08:05;;;;;;;10.23;8.53;;;;;;;0.92;68.46;95224.09;5080061;28;20216;-64
2021/12/18 00:10:31;;;;;;;12.87;9.57;;;;;;;1.01;68.52;95228.72;5061893;28;20227;-62
2021/12/18 00:12:57;;;;;;;11.03;9.63;;;;;;;1.00;68.30;95227.06;5088093;28;20241;-63
2021/12/18 00:15:24;;;;;;;8.90;8.00;;;;;;;0.94;68.64;95220.50;5120442;28;20219;-64
2021/12/18 00:17:50;;;;;;;10.77;8.87;;;;;;;0.95;68.85;95229.09;5119567;28;20207;-64
2021/12/18 00:20:17;;;;;;;11.17;9.33;;;;;;;1.04;68.12;95228.56;5119569;28;20210;-65
2021/12/18 00:22:43;;;;;;;10.83;9.20;;;;;;;0.97;68.35;95222.91;5119011;28;20231;-63
2021/12/18 00:25:11;;;;;;;10.30;8.97;;;;;;;0.94;68.33;95227.44;5120062;28;20227;-62
2021/12/18 00:27:36;;;;;;;10.17;8.80;;;;;;;0.94;68.54;95238.63;5118316;28;20246;-64
2021/12/18 00:30:05;;;;;;;9.77;8.77;;;;;;;0.94;68.62;95227.44;5118711;28;20223;-63
2021/12/18 00:32:31;;;;;;;11.53;9.20;;;;;;;1.00;68.29;95229.66;5120318;28;20237;-63
2021/12/18 00:34:56;;;;;;;10.40;9.33;;;;;;;1.06;68.20;95229.31;5120532;28;20274;-63
2021/12/18 00:37:22;;;;;;;12.63;10.80;;;;;;;1.03;68.03;95232.06;5118332;28;20234;-62
2021/12/18 00:40:10;;;;;;;12.30;10.10;;;;;;;1.03;68.20;95234.66;5120163;28;20230;-66
2021/12/18 00:45:22;;;;;;;10.33;9.00;;;;;;;1.00;68.01;95221.91;5121470;28;20268;-62
2021/12/18 00:47:47;;;;;;;12.33;9.57;;;;;;;0.92;68.23;95227.53;5145226;27;20408;-65
2021/12/18 00:50:24;;;;;;;10.40;8.77;;;;;;;0.94;68.23;95230.03;5119166;28;20210;-62
2021/12/18 00:52:50;;;;;;;11.77;10.00;;;;;;;0.97;68.25;95237.63;5119172;28;20227;-63
2021/12/18 00:55:17;;;;;;;12.60;10.00;;;;;;;1.00;68.30;95237.44;5119851;28;20230;-64
2021/12/18 00:57:44;;;;;;;11.83;9.50;;;;;;;1.00;67.74;95233.09;5118962;28;20227;-62
2021/12/18 01:00:12;;;;;;;10.83;9.10;;;;;;;1.05;68.10;95235.41;5118963;28;20230;-62
2021/12/18 01:02:42;;;;;;;10.43;9.37;;;;;;;1.07;67.87;95238.75;5118483;28;20203;-63
2021/12/18 01:05:08;;;;;;;11.27;9.43;;;;;;;1.15;67.42;95244.31;5119299;28;20215;-63
2021/12/18 01:07:33;;;;;;;11.07;9.80;;;;;;;1.13;67.57;95234.97;5118213;28;20233;-62
2021/12/18 01:10:13;;;;;;;12.43;10.17;;;;;;;1.08;67.37;95236.06;5117659;28;20238;-65
2021/12/18 01:12:43;;;;;;;10.90;9.27;;;;;;;1.12;67.35;95241.88;5116783;28;20250;-62
2021/12/18 01:15:27;;;;;;;12.50;9.87;;;;;;;1.21;66.72;95235.34;5120028;28;20214;-63
2021/12/18 01:23:22;;;;;;;12.67;9.23;;;;;;;1.07;67.35;95234.41;5122051;28;20214;-62
2021/12/18 01:25:49;;;;;;;11.73;9.03;;;;;;;0.98;67.01;95240.09;5118858;28;20234;-65
2021/12/18 01:28:15;;;;;;;10.50;8.77;;;;;;;0.95;67.00;95226.50;5115852;28;20227;-63
2021/12/18 01:30:41;;;;;;;14.63;9.80;;;;;;;1.02;66.67;95230.41;5122078;28;20246;-62
2021/12/18 01:33:07;;;;;;;10.30;9.23;;;;;;;1.03;66.65;95237.25;5123348;28;20230;-64
2021/12/18 01:35:33;;;;;;;10.40;9.27;;;;;;;0.96;66.58;95235.94;5122955;28;20221;-62
2021/12/18 01:37:59;;;;;;;10.47;8.17;;;;;;;0.95;66.42;95236.88;5122847;28;20468;-63
2021/12/18 01:40:26;;;;;;;9.70;8.77;;;;;;;0.96;66.65;95233.34;5121791;27;20227;-63
2021/12/18 01:53:07;;;;;;;9.70;8.37;;;;;;;0.93;66.91;95233.53;5123239;28;20221;-63
2021/12/18 01:55:34;;;;;;;9.93;8.40;;;;;;;0.94;66.57;95227.44;5120590;28;20477;-63
2021/12/18 01:58:00;;;;;;;9.50;8.60;;;;;;;0.91;66.83;95222.41;5121895;28;20223;-64
2021/12/18 02:00:30;;;;;;;10.00;8.40;;;;;;;0.84;67.33;95222.78;5120461;28;20215;-61
2021/12/18 02:02:56;;;;;;;9.60;8.47;;;;;;;0.84;67.31;95216.78;5120736;28;20238;-62
2021/12/18 02:05:21;;;;;;;10.47;9.03;;;;;;;0.85;67.34;95213.25;5121781;28;20211;-61
2021/12/18 02:07:47;;;;;;;11.00;8.90;;;;;;;0.91;67.37;95218.09;5121514;28;20222;-62
2021/12/18 02:10:19;;;;;;;9.97;8.90;;;;;;;0.75;67.46;95202.59;5122127;28;20238;-62
2021/12/18 02:13:00;;;;;;;9.67;8.67;;;;;;;0.80;68.41;95220.44;5123340;28;20223;-63
2021/12/18 02:21:18;;;;;;;11.47;8.57;;;;;;;0.82;68.85;95213.44;5063789;28;20267;-63
2021/12/18 02:23:44;;;;;;;9.63;8.03;;;;;;;0.77;68.40;95215.44;5072136;28;20215;-65
2021/12/18 02:26:11;;;;;;;10.23;8.20;;;;;;;0.75;68.00;95220.72;5055564;28;20205;-66
2021/12/18 02:28:38;;;;;;;9.47;8.23;;;;;;;0.78;67.95;95214.53;5051798;28;20229;-63
2021/12/18 02:31:04;;;;;;;13.53;8.60;;;;;;;0.76;67.75;95219.78;5056531;28;20232;-63
2021/12/18 02:33:30;;;;;;;10.20;8.23;;;;;;;0.77;67.76;95213.69;5051607;28;20223;-63
2021/12/18 02:35:58;;;;;;;11.03;8.57;;;;;;;0.76;67.62;95219.78;5068047;28;20241;-63
2021/12/18 02:41:40;;;;;;;11.97;9.00;;;;;;;0.75;67.49;95212.97;5044265;28;20264;-65
2021/12/18 02:44:11;;;;;;;9.60;8.30;;;;;;;0.77;67.67;95220.63;5028935;28;20247;-62
2021/12/18 02:46:38;;;;;;;8.67;7.87;;;;;;;0.81;67.88;95211.78;5043146;28;20229;-62
2021/12/18 02:49:15;;;;;;;9.77;8.73;;;;;;;0.89;67.02;95222.53;5063245;28;20232;-63
2021/12/18 02:51:42;;;;;;;11.17;9.03;;;;;;;0.78;67.29;95228.31;5061569;28;20481;-68
2021/12/18 02:54:08;;;;;;;12.23;8.63;;;;;;;0.79;67.78;95240.31;5061838;28;20273;-66
2021/12/18 02:56:34;;;;;;;10.07;8.70;;;;;;;0.88;67.45;95231.19;5080109;28;20216;-62
2021/12/18 02:59:05;;;;;;;10.93;8.93;;;;;;;0.80;68.04;95231.66;5079916;28;20296;-62
2021/12/18 03:01:32;;;;;;;11.07;8.67;;;;;;;0.74;68.00;95236.31;5063370;28;20228;-63
2021/12/18 03:04:00;;;;;;;9.57;8.00;;;;;;;0.67;68.22;95235.84;5061451;28;20228;-65
2021/12/18 03:27:42;;;;;;;13.87;10.40;;;;;;;0.69;72.13;95246.09;5060177;28;20414;-63
2021/12/18 03:30:08;;;;;;;11.13;10.00;;;;;;;0.68;71.70;95245.28;5044005;28;20247;-66
2021/12/18 03:32:33;;;;;;;12.00;9.53;;;;;;;0.75;71.80;95240.56;5061187;28;20201;-63
2021/12/18 03:34:59;;;;;;;11.67;9.63;;;;;;;0.72;72.06;95253.69;5060960;28;20237;-63
2021/12/18 03:37:24;;;;;;;12.43;10.00;;;;;;;0.80;71.77;95251.50;5059504;28;20371;-65
2021/12/18 03:39:50;;;;;;;11.33;10.13;;;;;;;0.76;71.56;95261.22;5043462;28;20267;-66
2021/12/18 03:42:16;;;;;;;11.27;9.90;;;;;;;0.66;71.86;95255.69;5042269;28;20235;-65
2021/12/18 03:44:42;;;;;;;12.90;10.03;;;;;;;0.61;72.78;95264.66;5044721;28;20291;-62
2021/12/18 03:47:08;;;;;;;12.13;10.37;;;;;;;0.50;73.67;95264.41;5060981;28;20206;-63
2021/12/18 03:49:34;;;;;;;12.53;10.87;;;;;;;0.35;74.42;95268.69;5109556;28;20231;-65
2021/12/18 03:52:00;;;;;;;12.47;10.53;;;;;;;0.33;75.04;95273.94;5121745;28;20215;-62
2021/12/18 03:54:26;;;;;;;13.17;11.10;;;;;;;0.22;75.55;95271.94;5121250;28;20252;-63
2021/12/18 03:56:52;;;;;;;13.37;11.50;;;;;;;0.23;75.74;95267.59;5121419;28;20223;-65
2021/12/18 03:59:18;;;;;;;12.20;10.43;;;;;;;0.27;75.69;95271.69;5118241;28;20217;-65
2021/12/18 04:01:43;;;;;;;14.70;11.03;;;;;;;0.13;76.32;95272.41;5118053;28;20223;-66
2021/12/18 04:04:09;;;;;;;14.27;10.80;;;;;;;0.05;76.72;95260.81;5148212;27;20215;-67
2021/12/18 04:06:38;;;;;;;13.43;11.50;;;;;;;0.08;77.17;95269.28;5119032;28;20272;-68
2021/12/18 04:09:04;;;;;;;14.07;10.87;;;;;;;0.06;76.79;95271.09;5122209;28;20294;-66
2021/12/18 04:11:29;;;;;;;15.27;11.70;;;;;;;0.11;76.77;95278.63;5122510;28;20248;-66
2021/12/18 04:13:55;;;;;;;14.27;11.80;;;;;;;0.09;76.89;95265.75;5119567;28;20210;-66
2021/12/18 04:16:21;;;;;;;12.77;11.20;;;;;;;0.11;76.87;95268.28;5118874;28;20219;-66
2021/12/18 04:18:46;;;;;;;15.03;11.13;;;;;;;0.14;76.80;95275.84;5118141;28;20262;-66
2021/12/18 04:21:12;;;;;;;13.77;11.57;;;;;;;0.21;76.55;95272.00;5115772;28;20234;-66
2021/12/18 04:23:38;;;;;;;13.90;10.60;;;;;;;0.26;76.02;95275.19;5118724;28;20293;-63
2021/12/18 04:26:03;;;;;;;13.83;10.87;;;;;;;0.30;75.70;95275.88;5117998;28;20199;-67
2021/12/18 04:28:29;;;;;;;13.43;10.50;;;;;;;0.28;75.88;95288.88;5118125;28;20214;-64
2021/12/18 04:30:55;;;;;;;13.70;10.80;;;;;;;0.43;75.32;95284.63;5120815;28;20241;-64
2021/12/18 04:33:21;;;;;;;14.83;10.50;;;;;;;0.27;75.36;95281.19;5117668;28;20219;-67
2021/12/18 04:35:47;;;;;;;12.23;10.10;;;;;;;0.14;75.89;95284.44;5120178;27;20219;-64
2021/12/18 04:38:13;;;;;;;12.37;10.33;;;;;;;0.21;75.24;95283.22;5118282;28;20254;-67
2021/12/18 04:40:40;;;;;;;13.77;10.53;;;;;;;0.18;75.10;95285.09;5116758;28;20218;-67
2021/12/18 04:43:06;;;;;;;13.77;9.80;;;;;;;0.16;75.09;95285.19;5118697;28;20207;-65
2021/12/18 04:45:31;;;;;;;11.23;9.20;;;;;;;0.26;74.72;95293.28;5119353;28;20233;-66
2021/12/18 04:47:57;;;;;;;11.30;8.90;;;;;;;0.31;74.23;95291.28;5120300;28;20255;-64
2021/12/18 04:50:23;;;;;;;12.50;9.57;;;;;;;0.26;74.14;95290.69;5121133;28;20203;-66
2021/12/18 04:52:49;;;;;;;10.93;9.03;;;;;;;0.33;74.19;95304.97;5119292;28;20251;-63
2021/12/18 04:55:16;;;;;;;11.03;8.83;;;;;;;0.38;73.59;95299.56;5118484;27;20259;-67
2021/12/18 04:57:41;;;;;;;9.73;8.60;;;;;;;0.40;73.46;95289.94;5118348;28;20246;-63
2021/12/18 05:00:12;;;;;;;10.27;8.73;;;;;;;0.46;72.89;95305.16;5119784;28;20229;-63
2021/12/18 05:02:41;;;;;;;10.47;8.47;;;;;;;0.52;72.58;95309.16;5116581;28;20196;-67
2021/12/18 05:05:08;;;;;;;9.00;8.07;;;;;;;0.43;72.58;95319.09;5121457;28;20195;-68
2021/12/18 05:07:34;;;;;;;9.77;8.60;;;;;;;0.39;72.75;95320.16;5126119;28;20223;-66
2021/12/18 05:10:00;;;;;;;9.50;8.33;;;;;;;0.36;72.52;95314.31;5122551;28;20268;-65
2021/12/18 05:12:25;;;;;;;11.23;9.00;;;;;;;0.38;72.32;95315.09;5123688;28;20226;-64
2021/12/18 05:14:51;;;;;;;10.17;8.30;;;;;;;0.33;72.63;95324.84;5121067;28;20211;-64
2021/12/18 05:17:16;;;;;;;9.33;8.33;;;;;;;0.32;72.55;95333.50;5121112;28;20196;-65
2021/12/18 05:19:43;;;;;;;11.47;8.63;;;;;;;0.32;73.14;95338.66;5122524;28;20219;-65
2021/12/18 05:22:08;;;;;;;12.93;9.60;;;;;;;0.27;73.10;95336.34;5119280;28;20213;-66
2021/12/18 05:24:34;;;;;;;11.63;9.33;;;;;;;0.35;72.60;95343.72;5123084;28;20223;-66
2021/12/18 05:26:59;;;;;;;11.07;8.97;;;;;;;0.36;72.61;95343.59;5153243;27;20231;-63
2021/12/18 05:29:25;;;;;;;11.57;8.80;;;;;;;0.40;72.54;95342.53;5123648;28;20256;-65
2021/12/18 05:31:50;;;;;;;10.20;8.47;;;;;;;0.43;72.24;95352.72;5121601;28;20246;-63
2021/12/18 05:34:22;;;;;;;9.27;8.13;;;;;;;0.39;71.87;95356.38;5119130;28;20249;-65
2021/12/18 05:39:20;;;;;;;8.83;7.23;;;;;;;0.36;71.71;95353.97;5125916;28;20231;-61
2021/12/18 05:41:47;;;;;;;10.17;7.90;;;;;;;0.36;72.07;95361.72;5120948;27;20272;-62
2021/12/18 05:44:14;;;;;;;10.47;7.90;;;;;;;0.44;71.47;95356.13;5122005;28;20213;-63
2021/12/18 05:46:40;;;;;;;10.63;8.03;;;;;;;0.34;71.48;95357.53;5123648;28;20223;-64
2021/12/18 05:49:05;;;;;;;9.23;8.20;;;;;;;0.33;71.78;95361.88;5123338;28;20222;-63
2021/12/18 05:51:32;;;;;;;8.37;7.47;;;;;;;0.34;71.98;95362.72;5122851;28;20231;-63
2021/12/18 05:53:58;;;;;;;9.93;8.10;;;;;;;0.33;71.66;95356.72;5121891;28;20242;-66
2021/12/18 05:56:23;;;;;;;10.30;7.40;;;;;;;0.35;71.46;95365.22;5122977;28;20214;-62
2021/12/18 05:58:49;;;;;;;9.70;7.63;;;;;;;0.36;71.76;95369.47;5123429;28;20219;-64
2021/12/18 06:01:15;;;;;;;9.87;7.73;;;;;;;0.26;71.59;95355.34;5122089;28;20291;-62
2021/12/18 06:03:42;;;;;;;9.33;8.33;;;;;;;0.34;71.85;95373.88;5120259;28;20230;-62
2021/12/18 06:06:08;;;;;;;9.37;8.10;;;;;;;0.37;71.40;95365.97;5147446;27;20211;-63
2021/12/18 06:08:35;;;;;;;9.57;8.27;;;;;;;0.38;71.56;95377.16;5121482;28;20211;-64
2021/12/18 06:11:06;;;;;;;11.63;9.20;;;;;;;0.47;71.72;95379.25;5121199;28;20215;-63
2021/12/18 06:13:31;;;;;;;9.80;8.43;;;;;;;0.49;71.31;95386.94;5122547;28;20207;-63
2021/12/18 06:15:57;;;;;;;8.80;7.53;;;;;;;0.49;71.87;95386.94;5119778;28;20332;-64
2021/12/18 06:18:23;;;;;;;10.53;8.33;;;;;;;0.46;71.77;95387.94;5122218;28;20218;-62
2021/12/18 06:20:48;;;;;;;10.97;8.73;;;;;;;0.36;71.80;95382.41;5121959;28;20211;-63
2021/12/18 06:23:14;;;;;;;9.80;8.40;;;;;;;0.32;72.13;95396.44;5120490;28;20195;-63
2021/12/18 06:25:39;;;;;;;10.60;8.90;;;;;;;0.34;72.49;95396.34;5121403;28;20219;-63
2021/12/18 06:28:05;;;;;;;11.47;8.63;;;;;;;0.43;72.54;95403.63;5121019;28;20295;-63
2021/12/18 06:30:30;;;;;;;11.97;9.13;;;;;;;0.46;72.71;95403.47;5123105;28;20226;-63
2021/12/18 06:32:56;;;;;;;11.97;9.73;;;;;;;0.50;73.11;95404.13;5121486;28;20219;-64
2021/12/18 06:35:21;;;;;;;11.73;9.40;;;;;;;0.51;73.35;95419.59;5146801;27;20218;-65
2021/12/18 06:37:47;;;;;;;12.13;10.80;;;;;;;0.50;73.94;95422.25;5121313;28;20215;-63
2021/12/18 06:40:12;;;;;;;10.77;9.37;;;;;;;0.41;74.50;95428.75;5117710;28;20218;-62
2021/12/18 06:42:42;;;;;;;14.33;10.73;;;;;;;0.24;74.74;95411.50;5121306;28;20328;-63
2021/12/18 06:45:08;;;;;;;12.47;9.90;;;;;;;0.36;74.80;95422.97;5119837;28;20219;-63
2021/12/18 06:47:34;;;;;;;11.83;9.60;;;;;;;0.36;75.04;95422.97;5122955;28;20211;-63
2021/12/18 06:50:00;;;;;;;12.60;10.10;;;;;;;0.42;75.08;95427.81;5123093;28;20203;-63
2021/12/18 06:52:25;;;;;;;14.03;9.87;;;;;;;0.53;75.00;95424.66;5123158;28;20219;-62
2021/12/18 06:54:50;;;;;;;12.50;9.93;;;;;;;0.44;74.59;95419.06;5121473;28;20219;-62
2021/12/18 06:57:22;;;;;;;13.90;11.30;;;;;;;0.39;75.28;95428.81;5121410;28;20294;-63
2021/12/18 06:59:47;;;;;;;11.97;9.57;;;;;;;0.35;75.12;95432.47;5120493;27;20278;-63
2021/12/18 07:02:13;;;;;;;13.13;9.63;;;;;;;0.43;75.32;95435.50;5121857;28;20207;-63
2021/12/18 07:04:38;;;;;;;12.00;9.90;;;;;;;0.49;75.42;95436.09;5116356;28;20223;-65
2021/12/18 07:07:04;;;;;;;11.23;10.13;;;;;;;0.57;75.33;95446.88;5121695;27;20227;-65
2021/12/18 07:09:29;;;;;;;11.17;9.67;;;;;;;0.57;74.71;95449.47;5117821;28;20250;-63
2021/12/18 07:11:55;;;;;;;11.97;9.17;;;;;;;0.53;74.48;95453.94;5119766;28;20291;-68
2021/12/18 07:14:20;;;;;;;13.07;10.23;;;;;;;0.58;74.83;95459.72;5119492;28;20203;-65
2021/12/18 07:16:46;;;;;;;13.60;9.57;;;;;;;0.54;74.74;95447.06;5118994;28;20223;-65
2021/12/18 07:19:11;;;;;;;10.50;9.43;;;;;;;0.49;74.65;95454.22;5119399;28;20227;-64
2021/12/18 07:21:37;;;;;;;13.43;10.70;;;;;;;0.57;74.64;95458.06;5119567;28;20211;-63
2021/12/18 07:24:03;;;;;;;13.00;8.63;;;;;;;0.69;74.19;95460.91;5120824;28;20218;-64
2021/12/18 07:26:30;;;;;;;12.27;9.97;;;;;;;0.54;74.67;95453.06;5121197;28;20207;-63
2021/12/18 07:28:55;;;;;;;11.30;9.90;;;;;;;0.61;74.13;95454.38;5121978;28;20207;-63
2021/12/18 07:31:21;;;;;;;11.20;10.00;;;;;;;0.68;74.12;95464.44;5119651;28;20231;-63
2021/12/18 07:33:46;;;;;;;11.87;10.20;;;;;;;0.80;73.49;95467.22;5118099;28;20226;-62
2021/12/18 07:36:12;;;;;;;11.50;9.60;;;;;;;0.76;73.24;95468.28;5120318;28;20226;-63
2021/12/18 07:38:37;;;;;;;10.83;9.73;;;;;;;0.86;72.77;95464.28;5119063;28;20218;-63
2021/12/18 07:41:03;;;;;;;11.10;9.80;;;;;;;0.83;72.50;95454.09;5118435;28;20195;-65
2021/12/18 07:43:28;;;;;;;13.83;10.20;;;;;;;0.87;72.41;95471.13;5117964;28;20219;-62
2021/12/18 07:45:54;;;;;;;11.10;9.73;;;;;;;0.95;72.48;95472.47;5118992;28;20231;-63
2021/12/18 07:48:19;;;;;;;11.10;9.13;;;;;;;0.96;72.24;95479.31;5120653;28;20367;-64
2021/12/18 07:50:45;;;;;;;10.80;9.63;;;;;;;1.14;71.87;95483.50;5117923;28;20245;-63
2021/12/18 07:53:11;;;;;;;10.30;9.20;;;;;;;1.08;71.72;95479.50;5114381;28;20221;-63
2021/12/18 07:55:38;;;;;;;10.63;9.23;;;;;;;1.06;71.21;95494.28;5118229;28;20223;-64
2021/12/18 07:58:03;;;;;;;13.10;8.87;;;;;;;1.04;71.13;95492.69;5117687;28;20219;-63
2021/12/18 08:00:29;;;;;;;11.60;9.70;;;;;;;1.17;70.94;95504.06;5120280;28;20227;-62
2021/12/18 08:02:54;;;;;;;12.00;9.50;;;;;;;1.10;70.65;95503.56;5121372;28;20235;-61
2021/12/18 08:05:20;;;;;;;11.73;8.60;;;;;;;1.12;70.87;95505.22;5120281;28;20214;-64
2021/12/18 08:07:46;;;;;;;11.03;9.70;;;;;;;1.24;70.70;95513.19;5118057;28;20274;-63
2021/12/18 08:10:11;;;;;;;18.03;10.77;;;;;;;1.40;70.27;95515.78;5121118;28;20223;-63
2021/12/18 08:12:37;;;;;;;11.67;9.33;;;;;;;1.32;70.02;95511.00;5121114;28;20227;-64
2021/12/18 08:15:04;;;;;;;9.80;8.80;;;;;;;1.23;69.62;95508.06;5116306;28;20294;-64
2021/12/18 08:17:30;;;;;;;11.23;9.37;;;;;;;1.12;69.95;95516.41;5117642;28;20211;-66
2021/12/18 08:19:55;;;;;;;11.43;9.20;;;;;;;1.26;69.36;95516.53;5116815;28;20283;-65
2021/12/18 08:22:21;;;;;;;13.50;9.57;;;;;;;1.39;68.89;95519.31;5115418;28;20263;-64
2021/12/18 08:24:47;;;;;;;12.37;9.87;;;;;;;1.39;68.21;95514.13;5117488;28;20223;-67
2021/12/18 08:27:12;;;;;;;10.77;9.47;;;;;;;1.39;68.71;95516.72;5115153;28;20222;-67
2021/12/18 08:29:38;;;;;;;12.10;9.73;;;;;;;1.48;68.77;95515.38;5119957;28;20314;-66
2021/12/18 08:32:04;;;;;;;11.40;9.43;;;;;;;1.74;67.85;95514.75;5120501;28;20243;-64
2021/12/18 08:34:30;;;;;;;12.50;9.90;;;;;;;1.82;67.21;95519.50;5120342;28;20215;-66
2021/12/18 08:36:55;;;;;;;12.97;10.53;;;;;;;1.77;67.51;95519.75;5118962;28;20222;-63
2021/12/18 08:39:21;;;;;;;11.50;9.17;;;;;;;1.97;66.94;95516.03;5115610;28;20219;-64
2021/12/18 08:41:47;;;;;;;11.63;9.63;;;;;;;2.03;66.45;95514.00;5116780;28;20243;-62
2021/12/18 08:44:13;;;;;;;12.53;10.30;;;;;;;1.86;66.75;95521.00;5117301;28;20211;-62
2021/12/18 08:46:39;;;;;;;12.00;9.30;;;;;;;1.88;66.73;95519.16;5117748;28;20230;-63
2021/12/18 08:49:06;;;;;;;12.33;9.33;;;;;;;1.62;67.15;95505.06;5116165;28;20215;-64
2021/12/18 08:51:32;;;;;;;12.60;9.17;;;;;;;1.74;67.49;95521.69;5115507;28;20253;-68
2021/12/18 08:53:58;;;;;;;10.67;8.77;;;;;;;1.97;65.99;95510.84;5147347;27;20344;-65
2021/12/18 08:56:23;;;;;;;11.43;8.97;;;;;;;2.14;65.45;95509.88;5120051;28;20195;-64
2021/12/18 08:58:53;;;;;;;11.23;8.90;;;;;;;2.19;65.88;95513.06;5115695;28;20290;-64
2021/12/18 09:01:21;;;;;;;11.87;9.30;;;;;;;2.22;65.94;95509.44;5120261;28;20250;-62
2021/12/18 09:03:48;;;;;;;12.90;9.30;;;;;;;2.09;65.79;95513.69;5118100;28;20223;-63
2021/12/18 09:06:13;;;;;;;10.67;9.10;;;;;;;1.98;65.79;95511.69;5118375;28;20234;-61
2021/12/18 09:08:39;;;;;;;11.47;9.30;;;;;;;1.97;66.57;95515.19;5119966;28;20400;-62
2021/12/18 09:11:05;;;;;;;11.30;9.00;;;;;;;2.12;65.39;95514.31;5120245;28;20279;-61
2021/12/18 09:13:30;;;;;;;10.17;9.00;;;;;;;2.11;65.99;95507.47;5120229;28;20302;-63
2021/12/18 09:15:56;;;;;;;11.60;9.10;;;;;;;2.31;64.59;95518.44;5116688;28;20223;-63
2021/12/18 09:18:21;;;;;;;14.20;9.57;;;;;;;2.29;64.24;95507.31;5117650;28;20214;-64
2021/12/18 09:20:47;;;;;;;13.47;8.53;;;;;;;2.48;64.18;95505.31;5116265;28;20215;-65
2021/12/18 09:23:17;;;;;;;12.77;10.27;;;;;;;2.46;65.09;95498.53;5120501;28;20208;-66
2021/12/18 09:25:43;;;;;;;12.37;10.93;;;;;;;2.71;64.23;95503.13;5119333;28;20222;-65
2021/12/18 09:28:09;;;;;;;13.77;10.23;;;;;;;2.81;64.36;95510.25;5117539;28;20227;-66
2021/12/18 09:30:35;;;;;;;11.90;10.43;;;;;;;2.75;64.24;95502.00;5142755;27;20496;-65
2021/12/18 09:33:01;;;;;;;15.00;11.30;;;;;;;2.86;64.57;95509.97;5118275;28;20249;-64
2021/12/18 09:35:27;;;;;;;14.27;10.43;;;;;;;2.97;63.54;95514.53;5119876;27;20222;-66
2021/12/18 09:37:53;;;;;;;12.87;10.70;;;;;;;2.88;64.42;95519.34;5118386;28;20211;-65
2021/12/18 09:40:19;;;;;;;13.50;10.43;;;;;;;2.94;63.74;95506.91;5117140;28;20242;-65
2021/12/18 09:42:46;;;;;;;13.13;10.00;;;;;;;2.83;64.17;95511.00;5119349;28;20243;-65
2021/12/18 09:45:14;;;;;;;14.17;9.57;;;;;;;2.72;63.83;95509.97;5118592;28;20220;-64
2021/12/18 09:47:40;;;;;;;11.37;10.20;;;;;;;2.72;64.43;95509.97;5119304;28;20218;-66
2021/12/18 09:50:07;;;;;;;14.37;10.73;;;;;;;2.66;64.21;95498.19;5118841;28;20271;-64
2021/12/18 09:52:35;;;;;;;13.70;9.13;;;;;;;2.75;64.51;95502.00;5120081;28;20223;-65
2021/12/18 09:55:01;;;;;;;11.70;9.47;;;;;;;2.86;64.10;95504.78;5120763;28;20291;-64
2021/12/18 09:57:26;;;;;;;9.63;8.07;;;;;;;2.78;64.26;95497.47;5119403;28;20260;-64
2021/12/18 09:59:52;;;;;;;10.93;8.93;;;;;;;2.94;64.37;95512.97;5120483;28;20227;-64
2021/12/18 10:02:18;;;;;;;9.27;7.93;;;;;;;3.21;62.91;95505.22;5149611;27;20216;-65
2021/12/18 10:04:45;;;;;;;10.77;8.07;;;;;;;3.29;63.05;95496.97;5123559;28;20227;-63
2021/12/18 10:07:22;;;;;;;9.93;7.37;;;;;;;3.23;62.04;95499.91;5120378;28;20241;-64
2021/12/18 10:09:51;;;;;;;7.00;6.30;;;;;;;3.67;61.13;95493.69;5120882;28;20241;-64
2021/12/18 10:12:29;;;;;;;9.10;7.70;;;;;;;3.86;60.17;95488.16;5119998;28;20211;-63
2021/12/18 10:14:55;;;;;;;9.27;7.47;;;;;;;3.89;60.07;95480.97;5122119;28;20222;-64
2021/12/18 10:17:37;;;;;;;8.57;7.30;;;;;;;3.49;60.77;95482.69;5122861;27;20218;-65
2021/12/18 10:20:22;;;;;;;10.83;7.43;;;;;;;3.13;62.35;95481.50;5117309;28;20211;-64
2021/12/18 10:22:50;;;;;;;12.17;8.13;;;;;;;2.93;63.27;95481.88;5122133;28;20215;-65
2021/12/18 10:25:21;;;;;;;12.13;9.27;;;;;;;3.07;63.42;95480.09;5121838;28;20215;-65
2021/12/18 10:28:09;;;;;;;12.83;9.90;;;;;;;3.35;63.45;95478.38;5120895;28;20215;-64
2021/12/18 10:30:35;;;;;;;10.27;8.70;;;;;;;3.74;60.89;95494.97;5118867;28;20312;-64
2021/12/18 10:33:10;;;;;;;9.70;8.00;;;;;;;3.67;60.30;95491.09;5119921;28;20275;-65
2021/12/18 10:35:36;;;;;;;10.60;8.03;;;;;;;3.43;60.67;95483.91;5121855;27;20267;-66
2021/12/18 10:38:02;;;;;;;9.67;7.83;;;;;;;3.31;61.15;95484.69;5121412;28;20237;-65
2021/12/18 10:40:45;;;;;;;8.57;7.63;;;;;;;3.21;61.76;95484.44;5120946;28;20258;-64
2021/12/18 10:43:15;;;;;;;9.30;8.00;;;;;;;3.14;62.33;95479.72;5119586;28;20227;-65
2021/12/18 10:45:41;;;;;;;10.87;8.27;;;;;;;3.27;61.72;95472.81;5118904;28;20223;-65
2021/12/18 10:48:15;;;;;;;8.47;7.57;;;;;;;3.34;60.67;95474.09;5121265;28;20219;-64
2021/12/18 10:50:53;;;;;;;8.50;7.67;;;;;;;3.33;61.69;95476.81;5122504;27;20290;-63
2021/12/18 10:53:33;;;;;;;8.33;7.27;;;;;;;3.32;60.65;95457.78;5122874;28;20225;-64
2021/12/18 10:56:03;;;;;;;8.43;6.90;;;;;;;3.35;59.73;95459.34;5120862;28;20227;-62
2021/12/18 10:58:37;;;;;;;9.40;7.70;;;;;;;3.54;59.86;95454.63;5119391;28;20287;-63
2021/12/18 11:01:14;;;;;;;8.13;6.97;;;;;;;3.86;59.34;95446.53;5119730;28;20283;-65
2021/12/18 11:03:45;;;;;;;7.43;6.37;;;;;;;3.84;59.49;95445.78;5118607;28;20223;-64
2021/12/18 11:06:17;;;;;;;5.77;4.83;;;;;;;4.04;55.38;95447.09;5117306;28;20211;-63
2021/12/18 11:08:51;;;;;;;4.60;3.90;;;;;;;3.80;55.37;95452.97;5119997;28;20291;-66
2021/12/18 11:14:16;;;;;;;6.37;5.13;;;;;;;3.60;56.26;95450.81;5118266;28;20214;-63
2021/12/18 11:16:48;;;;;;;8.93;4.63;;;;;;;3.43;57.70;95450.13;5120712;28;20245;-63
2021/12/18 11:19:25;;;;;;;5.27;4.73;;;;;;;3.65;54.58;95446.16;5149442;27;20238;-61
2021/12/18 11:21:55;;;;;;;4.53;3.40;;;;;;;3.36;54.71;95461.84;5120497;27;20234;-63
2021/12/18 11:24:28;;;;;;;3.87;3.40;;;;;;;3.39;55.05;95453.84;5118264;28;20227;-66
2021/12/18 11:27:10;;;;;;;5.13;3.50;;;;;;;3.33;55.02;95448.22;5119985;28;20234;-64
2021/12/18 11:29:40;;;;;;;4.77;3.13;;;;;;;3.30;55.53;95444.03;5145999;27;20246;-63
2021/12/18 11:32:14;;;;;;;4.90;3.57;;;;;;;3.47;56.75;95445.56;5123598;27;20202;-60
2021/12/18 11:34:39;;;;;;;6.60;3.53;;;;;;;3.50;55.07;95447.97;5135877;27;20219;-60
2021/12/18 11:37:11;;;;;;;4.23;3.17;;;;;;;3.45;54.02;95457.84;5120526;28;20227;-60
2021/12/18 11:39:38;;;;;;;5.23;3.97;;;;;;;3.59;53.81;95444.78;5117264;28;20262;-61
2021/12/18 11:42:05;;;;;;;4.53;3.40;;;;;;;3.52;54.59;95448.69;5119906;28;20229;-62
2021/12/18 11:44:40;;;;;;;4.13;3.20;;;;;;;3.72;54.04;95448.25;5122485;28;20211;-60
2021/12/18 11:47:24;;;;;;;4.23;3.63;;;;;;;3.75;53.74;95448.06;5121884;28;20198;-60
2021/12/18 11:49:51;;;;;;;4.40;3.20;;;;;;;3.81;53.35;95440.78;5118453;28;20272;-59
2021/12/18 11:52:16;;;;;;;3.63;3.33;;;;;;;3.78;53.46;95438.38;5116972;28;20239;-62
2021/12/18 11:54:45;;;;;;;5.63;3.60;;;;;;;3.57;53.98;95444.03;5119167;28;20308;-61
2021/12/18 11:57:12;;;;;;;3.63;2.77;;;;;;;3.51;52.86;95437.47;5120620;28;20223;-60
2021/12/18 11:59:43;;;;;;;3.33;3.00;;;;;;;3.49;54.62;95435.91;5119589;28;20210;-61
2021/12/18 12:02:12;;;;;;;3.20;2.83;;;;;;;3.48;55.13;95445.47;5122083;28;20207;-60
2021/12/18 12:05:05;;;;;;;3.10;2.80;;;;;;;3.39;52.85;95448.63;5118294;28;20236;-61
2021/12/18 12:07:31;;;;;;;4.33;3.97;;;;;;;3.30;53.04;95451.84;5115228;28;20298;-62
2021/12/18 12:12:53;;;;;;;3.87;3.20;;;;;;;3.44;53.92;95443.97;5118308;28;20246;-60
2021/12/18 12:15:21;;;;;;;4.57;3.10;;;;;;;3.46;53.43;95441.31;5118088;28;20291;-59
2021/12/18 12:18:00;;;;;;;4.60;2.80;;;;;;;3.44;52.30;95448.34;5119470;27;20227;-60
2021/12/18 12:20:34;;;;;;;3.80;2.77;;;;;;;3.38;52.51;95449.59;5117562;27;20203;-62
2021/12/18 12:23:02;;;;;;;3.33;3.00;;;;;;;3.37;52.87;95447.06;5122087;27;20206;-61
2021/12/18 12:25:36;;;;;;;3.93;3.20;;;;;;;3.35;53.36;95443.75;5119653;28;20290;-60
2021/12/18 12:28:09;;;;;;;4.00;3.20;;;;;;;3.40;54.48;95445.13;5120661;27;20260;-63
2021/12/18 12:30:43;;;;;;;3.80;3.40;;;;;;;3.49;55.15;95459.28;5118414;28;20354;-61
2021/12/18 12:33:20;;;;;;;6.87;3.93;;;;;;;3.37;57.06;95458.31;5116623;28;20227;-61